sensor_id;sensor_type;location;lat;lon;timestamp;P1;durP1;ratioP1;P2;durP2;ratioP2
13439;SDS011;6792;57.698;11.946;2022-10-26T00:00:07;8.28;;;1.75;;
13439;SDS011;6792;57.698;11.946;2022-10-26T00:02:37;7.33;;;1.47;;
13439;SDS011;6792;57.698;11.946;2022-10-26T00:05:07;9.30;;;1.82;;
13439;SDS011;6792;57.698;11.946;2022-10-26T00:07:36;9.70;;;2.00;;
13439;SDS011;6792;57.698;11.946;2022-10-26T00:10:07;6.97;;;1.67;;
13439;SDS011;6792;57.698;11.946;2022-10-26T00:12:36;11.05;;;1.62;;
13439;SDS011;6792;57.698;11.946;2022-10-26T00:15:06;3.70;;;1.50;;
13439;SDS011;6792;57.698;11.946;2022-10-26T00:17:36;4.65;;;1.60;;
13439;SDS011;6792;57.698;11.946;2022-10-26T00:20:06;4.65;;;1.37;;
13439;SDS011;6792;57.698;11.946;2022-10-26T00:22:37;4.37;;;1.20;;
13439;SDS011;6792;57.698;11.946;2022-10-26T00:25:07;5.37;;;1.15;;
13439;SDS011;6792;57.698;11.946;2022-10-26T00:27:36;5.95;;;1.20;;
13439;SDS011;6792;57.698;11.946;2022-10-26T00:30:06;6.10;;;1.67;;
13439;SDS011;6792;57.698;11.946;2022-10-26T00:32:37;3.98;;;0.93;;
13439;SDS011;6792;57.698;11.946;2022-10-26T00:35:06;6.35;;;1.20;;
13439;SDS011;6792;57.698;11.946;2022-10-26T00:37:36;5.47;;;1.10;;
13439;SDS011;6792;57.698;11.946;2022-10-26T00:40:06;4.67;;;0.88;;
13439;SDS011;6792;57.698;11.946;2022-10-26T00:42:36;7.72;;;1.30;;
13439;SDS011;6792;57.698;11.946;2022-10-26T00:45:07;4.42;;;0.90;;
13439;SDS011;6792;57.698;11.946;2022-10-26T00:47:45;4.70;;;0.80;;
13439;SDS011;6792;57.698;11.946;2022-10-26T00:50:18;7.15;;;1.10;;
13439;SDS011;6792;57.698;11.946;2022-10-26T00:52:49;5.05;;;1.10;;
13439;SDS011;6792;57.698;11.946;2022-10-26T00:55:20;5.42;;;1.20;;
13439;SDS011;6792;57.698;11.946;2022-10-26T00:57:51;4.45;;;0.98;;
13439;SDS011;6792;57.698;11.946;2022-10-26T01:00:22;3.55;;;1.05;;
13439;SDS011;6792;57.698;11.946;2022-10-26T01:02:51;6.33;;;1.12;;
13439;SDS011;6792;57.698;11.946;2022-10-26T01:05:21;4.78;;;1.12;;
13439;SDS011;6792;57.698;11.946;2022-10-26T01:07:52;8.33;;;0.95;;
13439;SDS011;6792;57.698;11.946;2022-10-26T01:10:22;4.58;;;1.05;;
13439;SDS011;6792;57.698;11.946;2022-10-26T01:12:54;2.10;;;0.70;;
13439;SDS011;6792;57.698;11.946;2022-10-26T01:15:27;4.92;;;1.00;;
13439;SDS011;6792;57.698;11.946;2022-10-26T01:18:00;3.60;;;0.80;;
13439;SDS011;6792;57.698;11.946;2022-10-26T01:20:40;1.95;;;0.93;;
13439;SDS011;6792;57.698;11.946;2022-10-26T01:23:18;3.92;;;0.90;;
13439;SDS011;6792;57.698;11.946;2022-10-26T01:25:59;3.62;;;0.82;;
13439;SDS011;6792;57.698;11.946;2022-10-26T01:28:40;5.70;;;0.88;;
13439;SDS011;6792;57.698;11.946;2022-10-26T01:31:16;7.58;;;0.90;;
13439;SDS011;6792;57.698;11.946;2022-10-26T01:33:47;3.17;;;0.80;;
13439;SDS011;6792;57.698;11.946;2022-10-26T01:36:19;6.17;;;1.05;;
13439;SDS011;6792;57.698;11.946;2022-10-26T01:38:53;4.78;;;1.00;;
13439;SDS011;6792;57.698;11.946;2022-10-26T01:41:25;9.53;;;1.30;;
13439;SDS011;6792;57.698;11.946;2022-10-26T01:43:57;2.33;;;0.80;;
13439;SDS011;6792;57.698;11.946;2022-10-26T01:46:29;5.10;;;1.10;;
13439;SDS011;6792;57.698;11.946;2022-10-26T01:49:02;3.45;;;0.90;;
13439;SDS011;6792;57.698;11.946;2022-10-26T01:51:34;5.42;;;1.12;;
13439;SDS011;6792;57.698;11.946;2022-10-26T01:54:04;2.65;;;0.62;;
13439;SDS011;6792;57.698;11.946;2022-10-26T01:56:35;8.98;;;1.10;;
13439;SDS011;6792;57.698;11.946;2022-10-26T01:59:30;4.78;;;1.20;;
13439;SDS011;6792;57.698;11.946;2022-10-26T02:05:34;3.17;;;0.82;;
13439;SDS011;6792;57.698;11.946;2022-10-26T02:08:15;7.42;;;1.50;;
13439;SDS011;6792;57.698;11.946;2022-10-26T02:10:53;5.78;;;0.95;;
13439;SDS011;6792;57.698;11.946;2022-10-26T02:13:26;10.18;;;1.25;;
13439;SDS011;6792;57.698;11.946;2022-10-26T02:15:58;8.30;;;1.40;;
13439;SDS011;6792;57.698;11.946;2022-10-26T02:18:30;5.08;;;1.35;;
13439;SDS011;6792;57.698;11.946;2022-10-26T02:21:04;5.03;;;1.30;;
13439;SDS011;6792;57.698;11.946;2022-10-26T02:23:35;7.75;;;1.32;;
13439;SDS011;6792;57.698;11.946;2022-10-26T02:26:07;6.75;;;1.45;;
13439;SDS011;6792;57.698;11.946;2022-10-26T02:28:40;5.60;;;1.12;;
13439;SDS011;6792;57.698;11.946;2022-10-26T02:31:10;9.38;;;1.30;;
13439;SDS011;6792;57.698;11.946;2022-10-26T02:33:42;6.25;;;1.20;;
13439;SDS011;6792;57.698;11.946;2022-10-26T02:36:15;7.22;;;1.25;;
13439;SDS011;6792;57.698;11.946;2022-10-26T02:38:47;5.75;;;1.32;;
13439;SDS011;6792;57.698;11.946;2022-10-26T02:41:18;4.45;;;1.22;;
13439;SDS011;6792;57.698;11.946;2022-10-26T02:43:51;9.58;;;1.55;;
13439;SDS011;6792;57.698;11.946;2022-10-26T02:46:22;3.55;;;1.25;;
13439;SDS011;6792;57.698;11.946;2022-10-26T02:48:54;3.37;;;0.90;;
13439;SDS011;6792;57.698;11.946;2022-10-26T02:51:26;6.85;;;1.20;;
13439;SDS011;6792;57.698;11.946;2022-10-26T02:53:58;4.33;;;1.10;;
13439;SDS011;6792;57.698;11.946;2022-10-26T02:56:32;11.63;;;1.30;;
13439;SDS011;6792;57.698;11.946;2022-10-26T02:59:03;5.45;;;1.00;;
13439;SDS011;6792;57.698;11.946;2022-10-26T03:01:35;6.97;;;1.22;;
13439;SDS011;6792;57.698;11.946;2022-10-26T03:04:04;6.05;;;0.90;;
13439;SDS011;6792;57.698;11.946;2022-10-26T03:06:33;6.10;;;1.37;;
13439;SDS011;6792;57.698;11.946;2022-10-26T03:09:02;3.92;;;0.78;;
13439;SDS011;6792;57.698;11.946;2022-10-26T03:11:31;7.40;;;0.98;;
13439;SDS011;6792;57.698;11.946;2022-10-26T03:14:00;6.75;;;0.90;;
13439;SDS011;6792;57.698;11.946;2022-10-26T03:16:30;3.40;;;0.88;;
13439;SDS011;6792;57.698;11.946;2022-10-26T03:18:59;2.95;;;0.80;;
13439;SDS011;6792;57.698;11.946;2022-10-26T03:21:27;3.15;;;0.80;;
13439;SDS011;6792;57.698;11.946;2022-10-26T03:23:57;2.50;;;0.85;;
13439;SDS011;6792;57.698;11.946;2022-10-26T03:26:26;5.62;;;0.93;;
13439;SDS011;6792;57.698;11.946;2022-10-26T03:28:55;5.90;;;0.75;;
13439;SDS011;6792;57.698;11.946;2022-10-26T03:31:24;7.65;;;1.10;;
13439;SDS011;6792;57.698;11.946;2022-10-26T03:33:53;3.25;;;0.98;;
13439;SDS011;6792;57.698;11.946;2022-10-26T03:36:22;3.20;;;0.68;;
13439;SDS011;6792;57.698;11.946;2022-10-26T03:38:51;2.77;;;0.70;;
13439;SDS011;6792;57.698;11.946;2022-10-26T03:41:20;2.62;;;0.82;;
13439;SDS011;6792;57.698;11.946;2022-10-26T03:43:49;5.12;;;1.00;;
13439;SDS011;6792;57.698;11.946;2022-10-26T03:46:18;3.17;;;0.67;;
13439;SDS011;6792;57.698;11.946;2022-10-26T03:48:47;3.77;;;1.00;;
13439;SDS011;6792;57.698;11.946;2022-10-26T03:51:16;5.12;;;1.17;;
13439;SDS011;6792;57.698;11.946;2022-10-26T03:53:45;5.47;;;0.78;;
13439;SDS011;6792;57.698;11.946;2022-10-26T03:56:15;6.92;;;1.10;;
13439;SDS011;6792;57.698;11.946;2022-10-26T03:58:44;4.58;;;0.90;;
13439;SDS011;6792;57.698;11.946;2022-10-26T04:01:13;6.25;;;0.78;;
13439;SDS011;6792;57.698;11.946;2022-10-26T04:03:42;2.77;;;0.80;;
13439;SDS011;6792;57.698;11.946;2022-10-26T04:06:12;6.22;;;1.10;;
13439;SDS011;6792;57.698;11.946;2022-10-26T04:08:41;5.40;;;0.98;;
13439;SDS011;6792;57.698;11.946;2022-10-26T04:11:10;2.60;;;0.75;;
13439;SDS011;6792;57.698;11.946;2022-10-26T04:13:39;5.70;;;1.02;;
13439;SDS011;6792;57.698;11.946;2022-10-26T04:16:08;5.22;;;0.90;;
13439;SDS011;6792;57.698;11.946;2022-10-26T04:18:37;5.92;;;1.02;;
13439;SDS011;6792;57.698;11.946;2022-10-26T04:21:06;4.90;;;0.98;;
13439;SDS011;6792;57.698;11.946;2022-10-26T04:23:35;5.72;;;1.32;;
13439;SDS011;6792;57.698;11.946;2022-10-26T04:26:04;4.47;;;0.90;;
13439;SDS011;6792;57.698;11.946;2022-10-26T04:28:34;5.47;;;1.10;;
13439;SDS011;6792;57.698;11.946;2022-10-26T04:31:03;6.20;;;0.98;;
13439;SDS011;6792;57.698;11.946;2022-10-26T04:33:32;4.75;;;0.80;;
13439;SDS011;6792;57.698;11.946;2022-10-26T04:36:01;4.12;;;0.60;;
13439;SDS011;6792;57.698;11.946;2022-10-26T04:38:30;3.45;;;0.85;;
13439;SDS011;6792;57.698;11.946;2022-10-26T04:40:59;6.55;;;1.02;;
13439;SDS011;6792;57.698;11.946;2022-10-26T04:43:28;5.55;;;1.00;;
13439;SDS011;6792;57.698;11.946;2022-10-26T04:45:57;5.12;;;1.00;;
13439;SDS011;6792;57.698;11.946;2022-10-26T04:48:26;3.33;;;0.80;;
13439;SDS011;6792;57.698;11.946;2022-10-26T04:50:57;3.35;;;0.88;;
13439;SDS011;6792;57.698;11.946;2022-10-26T04:53:26;6.28;;;1.10;;
13439;SDS011;6792;57.698;11.946;2022-10-26T04:55:56;3.22;;;0.80;;
13439;SDS011;6792;57.698;11.946;2022-10-26T04:58:26;6.15;;;1.02;;
13439;SDS011;6792;57.698;11.946;2022-10-26T05:00:55;6.85;;;1.20;;
13439;SDS011;6792;57.698;11.946;2022-10-26T05:03:24;6.50;;;1.07;;
13439;SDS011;6792;57.698;11.946;2022-10-26T05:05:56;2.70;;;0.78;;
13439;SDS011;6792;57.698;11.946;2022-10-26T05:08:26;3.40;;;0.80;;
13439;SDS011;6792;57.698;11.946;2022-10-26T05:10:56;7.40;;;1.20;;
13439;SDS011;6792;57.698;11.946;2022-10-26T05:13:25;3.45;;;0.82;;
13439;SDS011;6792;57.698;11.946;2022-10-26T05:15:54;8.30;;;1.17;;
13439;SDS011;6792;57.698;11.946;2022-10-26T05:18:23;5.17;;;1.20;;
13439;SDS011;6792;57.698;11.946;2022-10-26T05:20:52;8.68;;;1.20;;
13439;SDS011;6792;57.698;11.946;2022-10-26T05:23:22;4.67;;;0.98;;
13439;SDS011;6792;57.698;11.946;2022-10-26T05:25:51;6.00;;;1.00;;
13439;SDS011;6792;57.698;11.946;2022-10-26T05:28:21;7.95;;;1.12;;
13439;SDS011;6792;57.698;11.946;2022-10-26T05:30:50;4.12;;;1.00;;
13439;SDS011;6792;57.698;11.946;2022-10-26T05:33:19;2.75;;;0.80;;
13439;SDS011;6792;57.698;11.946;2022-10-26T05:35:49;3.37;;;0.82;;
13439;SDS011;6792;57.698;11.946;2022-10-26T05:38:21;2.95;;;0.90;;
13439;SDS011;6792;57.698;11.946;2022-10-26T05:40:51;3.12;;;1.32;;
13439;SDS011;6792;57.698;11.946;2022-10-26T05:43:21;5.08;;;1.10;;
13439;SDS011;6792;57.698;11.946;2022-10-26T05:45:52;7.80;;;1.27;;
13439;SDS011;6792;57.698;11.946;2022-10-26T05:48:21;3.80;;;0.88;;
13439;SDS011;6792;57.698;11.946;2022-10-26T05:50:50;11.55;;;1.32;;
13439;SDS011;6792;57.698;11.946;2022-10-26T05:53:19;2.92;;;1.00;;
13439;SDS011;6792;57.698;11.946;2022-10-26T05:55:49;6.62;;;0.98;;
13439;SDS011;6792;57.698;11.946;2022-10-26T05:58:20;3.47;;;0.95;;
13439;SDS011;6792;57.698;11.946;2022-10-26T06:00:55;5.78;;;0.88;;
13439;SDS011;6792;57.698;11.946;2022-10-26T06:03:40;6.45;;;0.98;;
13439;SDS011;6792;57.698;11.946;2022-10-26T06:06:13;5.37;;;0.82;;
13439;SDS011;6792;57.698;11.946;2022-10-26T06:08:43;4.28;;;0.90;;
13439;SDS011;6792;57.698;11.946;2022-10-26T06:11:13;4.28;;;1.00;;
13439;SDS011;6792;57.698;11.946;2022-10-26T06:13:44;6.53;;;0.93;;
13439;SDS011;6792;57.698;11.946;2022-10-26T06:16:20;6.47;;;1.30;;
13439;SDS011;6792;57.698;11.946;2022-10-26T06:18:56;7.15;;;1.00;;
13439;SDS011;6792;57.698;11.946;2022-10-26T06:21:30;3.60;;;0.60;;
13439;SDS011;6792;57.698;11.946;2022-10-26T06:24:06;7.97;;;0.98;;
13439;SDS011;6792;57.698;11.946;2022-10-26T06:26:39;4.80;;;0.47;;
13439;SDS011;6792;57.698;11.946;2022-10-26T06:29:13;5.55;;;0.90;;
13439;SDS011;6792;57.698;11.946;2022-10-26T06:31:46;2.00;;;0.82;;
13439;SDS011;6792;57.698;11.946;2022-10-26T06:34:17;7.42;;;0.80;;
13439;SDS011;6792;57.698;11.946;2022-10-26T06:36:50;3.75;;;0.72;;
13439;SDS011;6792;57.698;11.946;2022-10-26T06:39:20;4.55;;;0.60;;
13439;SDS011;6792;57.698;11.946;2022-10-26T06:41:51;5.42;;;0.80;;
13439;SDS011;6792;57.698;11.946;2022-10-26T06:44:21;4.95;;;0.75;;
13439;SDS011;6792;57.698;11.946;2022-10-26T06:46:53;3.52;;;0.90;;
13439;SDS011;6792;57.698;11.946;2022-10-26T06:49:27;8.13;;;1.20;;
13439;SDS011;6792;57.698;11.946;2022-10-26T06:52:00;2.83;;;0.80;;
13439;SDS011;6792;57.698;11.946;2022-10-26T06:54:39;9.30;;;1.00;;
13439;SDS011;6792;57.698;11.946;2022-10-26T06:57:12;1.82;;;0.55;;
13439;SDS011;6792;57.698;11.946;2022-10-26T06:59:44;1.10;;;0.65;;
13439;SDS011;6792;57.698;11.946;2022-10-26T07:02:16;6.33;;;0.82;;
13439;SDS011;6792;57.698;11.946;2022-10-26T07:04:45;3.98;;;0.70;;
13439;SDS011;6792;57.698;11.946;2022-10-26T07:07:15;2.52;;;0.50;;
13439;SDS011;6792;57.698;11.946;2022-10-26T07:09:46;3.27;;;0.78;;
13439;SDS011;6792;57.698;11.946;2022-10-26T07:12:15;2.92;;;0.90;;
13439;SDS011;6792;57.698;11.946;2022-10-26T07:14:45;2.47;;;0.78;;
13439;SDS011;6792;57.698;11.946;2022-10-26T07:17:14;3.40;;;0.60;;
13439;SDS011;6792;57.698;11.946;2022-10-26T07:19:43;5.15;;;0.80;;
13439;SDS011;6792;57.698;11.946;2022-10-26T07:22:12;3.92;;;0.90;;
13439;SDS011;6792;57.698;11.946;2022-10-26T07:24:41;2.87;;;0.50;;
13439;SDS011;6792;57.698;11.946;2022-10-26T07:27:10;4.17;;;1.00;;
13439;SDS011;6792;57.698;11.946;2022-10-26T07:29:39;1.90;;;0.72;;
13439;SDS011;6792;57.698;11.946;2022-10-26T07:32:08;3.95;;;0.95;;
13439;SDS011;6792;57.698;11.946;2022-10-26T07:34:37;2.33;;;0.90;;
13439;SDS011;6792;57.698;11.946;2022-10-26T07:37:06;4.33;;;0.78;;
13439;SDS011;6792;57.698;11.946;2022-10-26T07:39:35;3.37;;;0.60;;
13439;SDS011;6792;57.698;11.946;2022-10-26T07:42:05;7.45;;;1.02;;
13439;SDS011;6792;57.698;11.946;2022-10-26T07:44:34;1.37;;;0.70;;
13439;SDS011;6792;57.698;11.946;2022-10-26T07:47:04;4.90;;;0.90;;
13439;SDS011;6792;57.698;11.946;2022-10-26T07:49:33;5.30;;;0.93;;
13439;SDS011;6792;57.698;11.946;2022-10-26T07:52:02;4.50;;;1.05;;
13439;SDS011;6792;57.698;11.946;2022-10-26T07:54:31;6.83;;;0.68;;
13439;SDS011;6792;57.698;11.946;2022-10-26T07:57:00;3.20;;;1.15;;
13439;SDS011;6792;57.698;11.946;2022-10-26T07:59:29;3.72;;;1.02;;
13439;SDS011;6792;57.698;11.946;2022-10-26T08:01:58;8.23;;;1.00;;
13439;SDS011;6792;57.698;11.946;2022-10-26T08:04:28;3.33;;;0.78;;
13439;SDS011;6792;57.698;11.946;2022-10-26T08:06:57;4.42;;;0.90;;
13439;SDS011;6792;57.698;11.946;2022-10-26T08:09:26;4.20;;;0.68;;
13439;SDS011;6792;57.698;11.946;2022-10-26T08:11:55;3.45;;;0.90;;
13439;SDS011;6792;57.698;11.946;2022-10-26T08:14:24;2.15;;;0.85;;
13439;SDS011;6792;57.698;11.946;2022-10-26T08:16:53;2.62;;;0.75;;
13439;SDS011;6792;57.698;11.946;2022-10-26T08:19:22;2.83;;;0.93;;
13439;SDS011;6792;57.698;11.946;2022-10-26T08:21:51;3.50;;;0.70;;
13439;SDS011;6792;57.698;11.946;2022-10-26T08:24:20;4.65;;;1.17;;
13439;SDS011;6792;57.698;11.946;2022-10-26T08:26:49;3.75;;;0.88;;
13439;SDS011;6792;57.698;11.946;2022-10-26T08:29:18;5.78;;;1.00;;
13439;SDS011;6792;57.698;11.946;2022-10-26T08:31:47;4.45;;;1.02;;
13439;SDS011;6792;57.698;11.946;2022-10-26T08:34:16;4.83;;;1.47;;
13439;SDS011;6792;57.698;11.946;2022-10-26T08:36:45;4.45;;;0.93;;
13439;SDS011;6792;57.698;11.946;2022-10-26T08:39:15;3.45;;;0.95;;
13439;SDS011;6792;57.698;11.946;2022-10-26T08:41:45;6.65;;;0.82;;
13439;SDS011;6792;57.698;11.946;2022-10-26T08:44:22;3.75;;;0.90;;
13439;SDS011;6792;57.698;11.946;2022-10-26T08:46:54;4.92;;;0.82;;
13439;SDS011;6792;57.698;11.946;2022-10-26T08:49:28;4.45;;;0.72;;
13439;SDS011;6792;57.698;11.946;2022-10-26T08:51:59;4.55;;;1.22;;
13439;SDS011;6792;57.698;11.946;2022-10-26T08:54:33;5.75;;;0.93;;
13439;SDS011;6792;57.698;11.946;2022-10-26T08:57:09;6.00;;;0.70;;
13439;SDS011;6792;57.698;11.946;2022-10-26T08:59:45;3.55;;;0.90;;
13439;SDS011;6792;57.698;11.946;2022-10-26T09:02:16;3.25;;;0.55;;
13439;SDS011;6792;57.698;11.946;2022-10-26T09:04:45;3.17;;;0.78;;
13439;SDS011;6792;57.698;11.946;2022-10-26T09:07:21;4.70;;;0.70;;
13439;SDS011;6792;57.698;11.946;2022-10-26T09:09:56;6.70;;;1.17;;
13439;SDS011;6792;57.698;11.946;2022-10-26T09:12:31;3.65;;;0.62;;
13439;SDS011;6792;57.698;11.946;2022-10-26T09:15:07;4.62;;;0.90;;
13439;SDS011;6792;57.698;11.946;2022-10-26T09:17:50;6.60;;;0.80;;
13439;SDS011;6792;57.698;11.946;2022-10-26T09:23:41;4.35;;;0.65;;
13439;SDS011;6792;57.698;11.946;2022-10-26T09:26:21;1.85;;;0.50;;
13439;SDS011;6792;57.698;11.946;2022-10-26T09:28:56;5.40;;;0.78;;
13439;SDS011;6792;57.698;11.946;2022-10-26T09:31:37;3.55;;;0.62;;
13439;SDS011;6792;57.698;11.946;2022-10-26T09:34:01;3.87;;;0.70;;
13439;SDS011;6792;57.698;11.946;2022-10-26T09:36:33;4.55;;;0.75;;
13439;SDS011;6792;57.698;11.946;2022-10-26T09:39:05;5.87;;;0.88;;
13439;SDS011;6792;57.698;11.946;2022-10-26T09:41:39;3.27;;;0.80;;
13439;SDS011;6792;57.698;11.946;2022-10-26T09:44:11;2.12;;;0.57;;
13439;SDS011;6792;57.698;11.946;2022-10-26T09:46:47;1.85;;;0.55;;
13439;SDS011;6792;57.698;11.946;2022-10-26T09:49:17;2.90;;;0.85;;
13439;SDS011;6792;57.698;11.946;2022-10-26T09:51:51;2.35;;;0.70;;
13439;SDS011;6792;57.698;11.946;2022-10-26T09:54:21;1.75;;;0.68;;
13439;SDS011;6792;57.698;11.946;2022-10-26T09:56:52;3.95;;;0.60;;
13439;SDS011;6792;57.698;11.946;2022-10-26T09:59:23;3.75;;;0.78;;
13439;SDS011;6792;57.698;11.946;2022-10-26T10:01:53;7.30;;;1.22;;
13439;SDS011;6792;57.698;11.946;2022-10-26T10:04:22;1.90;;;0.50;;
13439;SDS011;6792;57.698;11.946;2022-10-26T10:06:52;4.42;;;1.07;;
13439;SDS011;6792;57.698;11.946;2022-10-26T10:09:39;4.37;;;0.78;;
13439;SDS011;6792;57.698;11.946;2022-10-26T10:12:16;3.45;;;0.88;;
13439;SDS011;6792;57.698;11.946;2022-10-26T10:14:54;3.17;;;0.82;;
13439;SDS011;6792;57.698;11.946;2022-10-26T10:17:25;4.17;;;0.75;;
13439;SDS011;6792;57.698;11.946;2022-10-26T10:19:54;3.05;;;0.75;;
13439;SDS011;6792;57.698;11.946;2022-10-26T10:22:36;6.00;;;1.00;;
13439;SDS011;6792;57.698;11.946;2022-10-26T10:25:22;2.35;;;0.82;;
13439;SDS011;6792;57.698;11.946;2022-10-26T10:28:19;2.92;;;0.60;;
13439;SDS011;6792;57.698;11.946;2022-10-26T10:30:54;4.65;;;0.53;;
13439;SDS011;6792;57.698;11.946;2022-10-26T10:33:32;3.67;;;0.60;;
13439;SDS011;6792;57.698;11.946;2022-10-26T10:36:04;3.10;;;0.80;;
13439;SDS011;6792;57.698;11.946;2022-10-26T10:38:37;3.50;;;0.90;;
13439;SDS011;6792;57.698;11.946;2022-10-26T10:41:16;3.37;;;0.70;;
13439;SDS011;6792;57.698;11.946;2022-10-26T10:43:48;1.98;;;0.90;;
13439;SDS011;6792;57.698;11.946;2022-10-26T10:46:21;2.42;;;1.00;;
13439;SDS011;6792;57.698;11.946;2022-10-26T10:49:00;4.15;;;0.85;;
13439;SDS011;6792;57.698;11.946;2022-10-26T10:51:32;1.52;;;0.80;;
13439;SDS011;6792;57.698;11.946;2022-10-26T10:54:05;2.85;;;0.82;;
13439;SDS011;6792;57.698;11.946;2022-10-26T10:56:40;2.52;;;0.88;;
13439;SDS011;6792;57.698;11.946;2022-10-26T10:59:21;2.42;;;0.90;;
13439;SDS011;6792;57.698;11.946;2022-10-26T11:02:00;2.65;;;0.70;;
13439;SDS011;6792;57.698;11.946;2022-10-26T11:04:45;4.45;;;0.50;;
13439;SDS011;6792;57.698;11.946;2022-10-26T11:07:20;4.17;;;0.75;;
13439;SDS011;6792;57.698;11.946;2022-10-26T11:09:51;1.67;;;0.60;;
13439;SDS011;6792;57.698;11.946;2022-10-26T11:12:23;1.92;;;0.80;;
13439;SDS011;6792;57.698;11.946;2022-10-26T11:14:56;2.47;;;0.80;;
13439;SDS011;6792;57.698;11.946;2022-10-26T11:17:28;2.37;;;0.80;;
13439;SDS011;6792;57.698;11.946;2022-10-26T11:19:59;4.05;;;1.02;;
13439;SDS011;6792;57.698;11.946;2022-10-26T11:22:33;6.92;;;0.95;;
13439;SDS011;6792;57.698;11.946;2022-10-26T11:25:06;2.05;;;0.70;;
13439;SDS011;6792;57.698;11.946;2022-10-26T11:27:41;4.17;;;0.98;;
13439;SDS011;6792;57.698;11.946;2022-10-26T11:30:13;1.57;;;0.80;;
13439;SDS011;6792;57.698;11.946;2022-10-26T11:32:46;2.62;;;0.80;;
13439;SDS011;6792;57.698;11.946;2022-10-26T11:35:18;3.37;;;0.57;;
13439;SDS011;6792;57.698;11.946;2022-10-26T11:37:53;1.25;;;0.60;;
13439;SDS011;6792;57.698;11.946;2022-10-26T11:40:27;2.58;;;0.80;;
13439;SDS011;6792;57.698;11.946;2022-10-26T11:43:00;1.95;;;0.72;;
13439;SDS011;6792;57.698;11.946;2022-10-26T11:48:09;2.02;;;1.07;;
13439;SDS011;6792;57.698;11.946;2022-10-26T11:50:42;7.03;;;1.00;;
13439;SDS011;6792;57.698;11.946;2022-10-26T11:53:15;4.30;;;1.35;;
13439;SDS011;6792;57.698;11.946;2022-10-26T11:55:46;3.55;;;0.72;;
13439;SDS011;6792;57.698;11.946;2022-10-26T11:58:18;2.95;;;0.88;;
13439;SDS011;6792;57.698;11.946;2022-10-26T12:00:50;5.58;;;1.00;;
13439;SDS011;6792;57.698;11.946;2022-10-26T12:03:24;7.40;;;1.00;;
13439;SDS011;6792;57.698;11.946;2022-10-26T12:05:56;1.85;;;0.90;;
13439;SDS011;6792;57.698;11.946;2022-10-26T12:08:26;1.77;;;0.80;;
13439;SDS011;6792;57.698;11.946;2022-10-26T12:11:00;2.30;;;0.70;;
13439;SDS011;6792;57.698;11.946;2022-10-26T12:13:31;3.27;;;0.85;;
13439;SDS011;6792;57.698;11.946;2022-10-26T12:16:05;3.83;;;0.82;;
13439;SDS011;6792;57.698;11.946;2022-10-26T12:18:40;1.72;;;0.72;;
13439;SDS011;6792;57.698;11.946;2022-10-26T12:21:12;3.95;;;0.98;;
13439;SDS011;6792;57.698;11.946;2022-10-26T12:23:52;1.52;;;0.70;;
13439;SDS011;6792;57.698;11.946;2022-10-26T12:29:26;2.35;;;0.82;;
13439;SDS011;6792;57.698;11.946;2022-10-26T12:32:02;4.35;;;0.80;;
13439;SDS011;6792;57.698;11.946;2022-10-26T12:34:57;1.27;;;0.80;;
13439;SDS011;6792;57.698;11.946;2022-10-26T12:37:30;1.82;;;0.82;;
13439;SDS011;6792;57.698;11.946;2022-10-26T12:52:33;4.67;;;0.93;;
13439;SDS011;6792;57.698;11.946;2022-10-26T13:05:01;2.60;;;1.17;;
13439;SDS011;6792;57.698;11.946;2022-10-26T13:07:57;6.30;;;1.20;;
13439;SDS011;6792;57.698;11.946;2022-10-26T13:10:28;1.85;;;0.75;;
13439;SDS011;6792;57.698;11.946;2022-10-26T13:12:58;5.20;;;1.30;;
13439;SDS011;6792;57.698;11.946;2022-10-26T13:15:32;4.78;;;1.50;;
13439;SDS011;6792;57.698;11.946;2022-10-26T13:18:07;4.22;;;1.47;;
13439;SDS011;6792;57.698;11.946;2022-10-26T13:20:50;3.47;;;1.05;;
13439;SDS011;6792;57.698;11.946;2022-10-26T13:23:22;4.72;;;1.50;;
13439;SDS011;6792;57.698;11.946;2022-10-26T13:26:03;6.12;;;1.57;;
13439;SDS011;6792;57.698;11.946;2022-10-26T13:28:45;5.58;;;1.57;;
13439;SDS011;6792;57.698;11.946;2022-10-26T13:34:32;3.52;;;1.32;;
13439;SDS011;6792;57.698;11.946;2022-10-26T13:37:06;5.67;;;1.70;;
13439;SDS011;6792;57.698;11.946;2022-10-26T13:39:41;5.83;;;1.45;;
13439;SDS011;6792;57.698;11.946;2022-10-26T13:42:13;3.00;;;1.50;;
13439;SDS011;6792;57.698;11.946;2022-10-26T13:44:46;6.60;;;1.75;;
13439;SDS011;6792;57.698;11.946;2022-10-26T13:47:21;6.83;;;1.50;;
13439;SDS011;6792;57.698;11.946;2022-10-26T13:49:52;7.65;;;1.55;;
13439;SDS011;6792;57.698;11.946;2022-10-26T13:52:25;6.00;;;1.00;;
13439;SDS011;6792;57.698;11.946;2022-10-26T13:54:57;5.95;;;1.45;;
13439;SDS011;6792;57.698;11.946;2022-10-26T13:57:31;3.12;;;0.88;;
13439;SDS011;6792;57.698;11.946;2022-10-26T14:00:02;4.30;;;1.22;;
13439;SDS011;6792;57.698;11.946;2022-10-26T14:02:39;3.47;;;1.00;;
13439;SDS011;6792;57.698;11.946;2022-10-26T14:05:09;4.10;;;1.40;;
13439;SDS011;6792;57.698;11.946;2022-10-26T14:07:40;6.00;;;1.30;;
13439;SDS011;6792;57.698;11.946;2022-10-26T14:10:21;5.60;;;1.37;;
13439;SDS011;6792;57.698;11.946;2022-10-26T14:12:53;6.33;;;1.70;;
13439;SDS011;6792;57.698;11.946;2022-10-26T14:15:23;5.58;;;1.37;;
13439;SDS011;6792;57.698;11.946;2022-10-26T14:17:53;7.58;;;1.60;;
13439;SDS011;6792;57.698;11.946;2022-10-26T14:20:23;8.33;;;1.55;;
13439;SDS011;6792;57.698;11.946;2022-10-26T14:22:55;6.58;;;1.60;;
13439;SDS011;6792;57.698;11.946;2022-10-26T14:25:25;7.22;;;2.30;;
13439;SDS011;6792;57.698;11.946;2022-10-26T14:27:56;6.55;;;2.12;;
13439;SDS011;6792;57.698;11.946;2022-10-26T14:30:26;4.47;;;1.85;;
13439;SDS011;6792;57.698;11.946;2022-10-26T14:32:57;5.25;;;2.00;;
13439;SDS011;6792;57.698;11.946;2022-10-26T14:35:27;6.10;;;2.50;;
13439;SDS011;6792;57.698;11.946;2022-10-26T14:38:01;6.67;;;2.33;;
13439;SDS011;6792;57.698;11.946;2022-10-26T14:40:33;6.62;;;2.08;;
13439;SDS011;6792;57.698;11.946;2022-10-26T14:43:03;5.42;;;2.50;;
13439;SDS011;6792;57.698;11.946;2022-10-26T14:45:33;6.37;;;2.27;;
13439;SDS011;6792;57.698;11.946;2022-10-26T14:48:04;6.80;;;2.47;;
13439;SDS011;6792;57.698;11.946;2022-10-26T14:50:34;9.55;;;2.17;;
13439;SDS011;6792;57.698;11.946;2022-10-26T14:53:03;9.13;;;2.50;;
13439;SDS011;6792;57.698;11.946;2022-10-26T14:55:45;4.92;;;1.72;;
13439;SDS011;6792;57.698;11.946;2022-10-26T14:58:17;6.70;;;2.20;;
13439;SDS011;6792;57.698;11.946;2022-10-26T15:03:57;5.35;;;2.20;;
13439;SDS011;6792;57.698;11.946;2022-10-26T15:06:38;5.55;;;2.00;;
13439;SDS011;6792;57.698;11.946;2022-10-26T15:09:31;8.90;;;2.55;;
13439;SDS011;6792;57.698;11.946;2022-10-26T15:12:05;6.37;;;1.87;;
13439;SDS011;6792;57.698;11.946;2022-10-26T15:14:42;4.15;;;2.15;;
13439;SDS011;6792;57.698;11.946;2022-10-26T15:17:13;5.00;;;2.25;;
13439;SDS011;6792;57.698;11.946;2022-10-26T15:19:46;6.47;;;3.02;;
13439;SDS011;6792;57.698;11.946;2022-10-26T15:22:19;6.47;;;2.55;;
13439;SDS011;6792;57.698;11.946;2022-10-26T15:24:50;9.90;;;2.85;;
13439;SDS011;6792;57.698;11.946;2022-10-26T15:27:21;5.05;;;2.67;;
13439;SDS011;6792;57.698;11.946;2022-10-26T15:29:51;5.70;;;3.25;;
13439;SDS011;6792;57.698;11.946;2022-10-26T15:32:36;10.05;;;2.62;;
13439;SDS011;6792;57.698;11.946;2022-10-26T15:35:21;8.00;;;3.00;;
13439;SDS011;6792;57.698;11.946;2022-10-26T15:37:53;7.00;;;2.67;;
13439;SDS011;6792;57.698;11.946;2022-10-26T15:40:23;6.22;;;3.00;;
13439;SDS011;6792;57.698;11.946;2022-10-26T15:42:54;6.08;;;2.10;;
13439;SDS011;6792;57.698;11.946;2022-10-26T15:45:25;10.78;;;2.65;;
13439;SDS011;6792;57.698;11.946;2022-10-26T15:47:56;5.45;;;2.58;;
13439;SDS011;6792;57.698;11.946;2022-10-26T15:50:28;5.28;;;2.75;;
13439;SDS011;6792;57.698;11.946;2022-10-26T15:52:58;9.73;;;2.90;;
13439;SDS011;6792;57.698;11.946;2022-10-26T15:55:29;8.88;;;3.55;;
13439;SDS011;6792;57.698;11.946;2022-10-26T15:58:00;5.12;;;2.77;;